sensor_id;sensor_type;location;lat;lon;timestamp;temperature;humidity
26212;DHT22;13951;49.516;6.094;2023-02-28T00:00:53;0.20;99.90
26212;DHT22;13951;49.516;6.094;2023-02-28T00:03:26;0.20;99.90
26212;DHT22;13951;49.516;6.094;2023-02-28T00:05:59;0.20;99.90
26212;DHT22;13951;49.516;6.094;2023-02-28T00:08:32;0.10;99.90
26212;DHT22;13951;49.516;6.094;2023-02-28T00:11:07;0.10;99.90
26212;DHT22;13951;49.516;6.094;2023-02-28T00:13:43;0.10;99.90
26212;DHT22;13951;49.516;6.094;2023-02-28T00:16:20;0.00;99.90
26212;DHT22;13951;49.516;6.094;2023-02-28T00:18:53;0.00;99.90
26212;DHT22;13951;49.516;6.094;2023-02-28T00:21:26;0.00;99.90
26212;DHT22;13951;49.516;6.094;2023-02-28T00:23:59;0.00;99.90
26212;DHT22;13951;49.516;6.094;2023-02-28T00:26:32;0.00;99.90
26212;DHT22;13951;49.516;6.094;2023-02-28T00:29:05;0.00;99.90
26212;DHT22;13951;49.516;6.094;2023-02-28T00:31:37;0.00;99.90
26212;DHT22;13951;49.516;6.094;2023-02-28T00:34:10;-0.10;99.90
26212;DHT22;13951;49.516;6.094;2023-02-28T00:36:43;-0.10;99.90
26212;DHT22;13951;49.516;6.094;2023-02-28T00:39:18;-0.10;99.90
26212;DHT22;13951;49.516;6.094;2023-02-28T00:41:51;-0.10;99.90
26212;DHT22;13951;49.516;6.094;2023-02-28T00:44:24;-0.10;99.90
26212;DHT22;13951;49.516;6.094;2023-02-28T00:46:57;-0.10;99.90
26212;DHT22;13951;49.516;6.094;2023-02-28T00:49:30;-0.20;99.90
26212;DHT22;13951;49.516;6.094;2023-02-28T00:52:03;-0.20;99.90
26212;DHT22;13951;49.516;6.094;2023-02-28T00:54:36;-0.20;99.90
26212;DHT22;13951;49.516;6.094;2023-02-28T00:57:09;-0.20;99.90
26212;DHT22;13951;49.516;6.094;2023-02-28T00:59:41;-0.20;99.90
26212;DHT22;13951;49.516;6.094;2023-02-28T01:02:14;-0.20;99.90
26212;DHT22;13951;49.516;6.094;2023-02-28T01:04:47;-0.20;99.90
26212;DHT22;13951;49.516;6.094;2023-02-28T01:07:20;-0.20;99.90
26212;DHT22;13951;49.516;6.094;2023-02-28T01:09:52;-0.20;99.90
26212;DHT22;13951;49.516;6.094;2023-02-28T01:12:25;-0.20;99.90
26212;DHT22;13951;49.516;6.094;2023-02-28T01:14:59;-0.20;99.90
26212;DHT22;13951;49.516;6.094;2023-02-28T01:17:32;-0.20;99.90
26212;DHT22;13951;49.516;6.094;2023-02-28T01:20:06;-0.20;99.90
26212;DHT22;13951;49.516;6.094;2023-02-28T01:22:39;-0.20;99.90
26212;DHT22;13951;49.516;6.094;2023-02-28T01:25:13;-0.20;99.90
26212;DHT22;13951;49.516;6.094;2023-02-28T01:27:45;-0.20;99.90
26212;DHT22;13951;49.516;6.094;2023-02-28T01:30:18;-0.20;99.90
26212;DHT22;13951;49.516;6.094;2023-02-28T01:32:52;-0.20;99.90
26212;DHT22;13951;49.516;6.094;2023-02-28T01:35:25;-0.20;99.90
26212;DHT22;13951;49.516;6.094;2023-02-28T01:37:59;-0.20;99.90
26212;DHT22;13951;49.516;6.094;2023-02-28T01:40:47;-0.20;99.90
26212;DHT22;13951;49.516;6.094;2023-02-28T01:43:39;-0.30;99.90
26212;DHT22;13951;49.516;6.094;2023-02-28T01:46:21;-0.30;99.90
26212;DHT22;13951;49.516;6.094;2023-02-28T01:49:11;-0.30;99.90
26212;DHT22;13951;49.516;6.094;2023-02-28T01:51:48;-0.30;99.90
26212;DHT22;13951;49.516;6.094;2023-02-28T01:54:28;-0.40;99.90
26212;DHT22;13951;49.516;6.094;2023-02-28T01:57:08;-0.40;99.90
26212;DHT22;13951;49.516;6.094;2023-02-28T02:02:21;-0.40;99.90
26212;DHT22;13951;49.516;6.094;2023-02-28T02:05:11;-0.40;99.90
26212;DHT22;13951;49.516;6.094;2023-02-28T02:07:47;-0.40;99.90
26212;DHT22;13951;49.516;6.094;2023-02-28T02:10:35;-0.40;99.90
26212;DHT22;13951;49.516;6.094;2023-02-28T02:18:57;-0.40;99.90
26212;DHT22;13951;49.516;6.094;2023-02-28T02:24:40;-0.40;99.90
26212;DHT22;13951;49.516;6.094;2023-02-28T02:27:28;-0.50;99.90
26212;DHT22;13951;49.516;6.094;2023-02-28T02:35:54;-0.50;99.90
26212;DHT22;13951;49.516;6.094;2023-02-28T02:41:17;-0.50;99.90
26212;DHT22;13951;49.516;6.094;2023-02-28T02:46:35;-0.60;99.90
26212;DHT22;13951;49.516;6.094;2023-02-28T02:49:16;-0.60;99.90
26212;DHT22;13951;49.516;6.094;2023-02-28T02:51:52;-0.60;99.90
26212;DHT22;13951;49.516;6.094;2023-02-28T02:54:29;-0.60;99.90
26212;DHT22;13951;49.516;6.094;2023-02-28T02:57:12;-0.60;99.90
26212;DHT22;13951;49.516;6.094;2023-02-28T02:59:46;-0.60;99.90
26212;DHT22;13951;49.516;6.094;2023-02-28T03:02:22;-0.60;99.90
26212;DHT22;13951;49.516;6.094;2023-02-28T03:04:59;-0.60;99.90
26212;DHT22;13951;49.516;6.094;2023-02-28T03:07:33;-0.60;99.90
26212;DHT22;13951;49.516;6.094;2023-02-28T03:10:31;-0.70;99.90
26212;DHT22;13951;49.516;6.094;2023-02-28T03:13:34;-0.70;99.90
26212;DHT22;13951;49.516;6.094;2023-02-28T03:25:17;-0.70;99.90
26212;DHT22;13951;49.516;6.094;2023-02-28T03:30:55;-0.80;99.90
26212;DHT22;13951;49.516;6.094;2023-02-28T03:33:37;-0.80;99.90
26212;DHT22;13951;49.516;6.094;2023-02-28T03:36:16;-0.80;99.90
26212;DHT22;13951;49.516;6.094;2023-02-28T03:39:01;-0.80;99.90
26212;DHT22;13951;49.516;6.094;2023-02-28T03:41:56;-0.80;99.90
26212;DHT22;13951;49.516;6.094;2023-02-28T03:44:38;-0.80;99.90
26212;DHT22;13951;49.516;6.094;2023-02-28T03:47:33;-0.90;99.90
26212;DHT22;13951;49.516;6.094;2023-02-28T03:50:18;-0.90;99.90
26212;DHT22;13951;49.516;6.094;2023-02-28T03:53:05;-0.90;99.90
26212;DHT22;13951;49.516;6.094;2023-02-28T03:55:49;-0.90;99.90
26212;DHT22;13951;49.516;6.094;2023-02-28T03:58:32;-0.90;99.90
26212;DHT22;13951;49.516;6.094;2023-02-28T04:01:13;-1.00;99.90
26212;DHT22;13951;49.516;6.094;2023-02-28T04:03:48;-1.00;99.90
26212;DHT22;13951;49.516;6.094;2023-02-28T04:06:23;-0.90;99.90
26212;DHT22;13951;49.516;6.094;2023-02-28T04:08:56;-0.90;99.90
26212;DHT22;13951;49.516;6.094;2023-02-28T04:11:35;-0.90;99.90
26212;DHT22;13951;49.516;6.094;2023-02-28T04:14:10;-0.90;99.90
26212;DHT22;13951;49.516;6.094;2023-02-28T04:16:42;-0.90;99.90
26212;DHT22;13951;49.516;6.094;2023-02-28T04:19:15;-1.00;99.90
26212;DHT22;13951;49.516;6.094;2023-02-28T04:21:50;-1.00;99.90
26212;DHT22;13951;49.516;6.094;2023-02-28T04:24:27;-0.90;99.90
26212;DHT22;13951;49.516;6.094;2023-02-28T04:27:00;-1.00;99.90
26212;DHT22;13951;49.516;6.094;2023-02-28T04:29:33;-1.00;99.90
26212;DHT22;13951;49.516;6.094;2023-02-28T04:32:06;-0.90;99.90
26212;DHT22;13951;49.516;6.094;2023-02-28T04:34:39;-0.90;99.90
26212;DHT22;13951;49.516;6.094;2023-02-28T04:37:11;-0.90;99.90
26212;DHT22;13951;49.516;6.094;2023-02-28T04:39:46;-0.90;99.90
26212;DHT22;13951;49.516;6.094;2023-02-28T04:42:18;-0.90;99.90
26212;DHT22;13951;49.516;6.094;2023-02-28T04:44:51;-0.90;99.90
26212;DHT22;13951;49.516;6.094;2023-02-28T04:47:24;-0.90;99.90
26212;DHT22;13951;49.516;6.094;2023-02-28T04:49:57;-0.90;99.90
26212;DHT22;13951;49.516;6.094;2023-02-28T04:52:29;-0.90;99.90
26212;DHT22;13951;49.516;6.094;2023-02-28T04:55:02;-0.80;99.90
26212;DHT22;13951;49.516;6.094;2023-02-28T04:57:35;-0.90;99.90
26212;DHT22;13951;49.516;6.094;2023-02-28T05:00:09;-0.90;99.90
26212;DHT22;13951;49.516;6.094;2023-02-28T05:02:44;-0.90;99.90
26212;DHT22;13951;49.516;6.094;2023-02-28T05:05:16;-0.90;99.90
26212;DHT22;13951;49.516;6.094;2023-02-28T05:07:50;-0.90;99.90
26212;DHT22;13951;49.516;6.094;2023-02-28T05:10:23;-0.90;99.90
26212;DHT22;13951;49.516;6.094;2023-02-28T05:12:56;-0.90;99.90
26212;DHT22;13951;49.516;6.094;2023-02-28T05:15:29;-0.90;99.90
26212;DHT22;13951;49.516;6.094;2023-02-28T05:18:01;-1.00;99.90
26212;DHT22;13951;49.516;6.094;2023-02-28T05:20:34;-0.90;99.90
26212;DHT22;13951;49.516;6.094;2023-02-28T05:23:08;-0.90;99.90
26212;DHT22;13951;49.516;6.094;2023-02-28T05:25:43;-0.90;99.90
26212;DHT22;13951;49.516;6.094;2023-02-28T05:28:16;-0.90;99.90
26212;DHT22;13951;49.516;6.094;2023-02-28T05:30:48;-0.90;99.90
26212;DHT22;13951;49.516;6.094;2023-02-28T05:33:21;-1.00;99.90
26212;DHT22;13951;49.516;6.094;2023-02-28T05:35:54;-1.00;99.90
26212;DHT22;13951;49.516;6.094;2023-02-28T05:41:00;-1.10;99.90
26212;DHT22;13951;49.516;6.094;2023-02-28T05:43:33;-1.00;99.90
26212;DHT22;13951;49.516;6.094;2023-02-28T05:46:09;-1.00;99.90
26212;DHT22;13951;49.516;6.094;2023-02-28T05:48:42;-1.00;99.90
26212;DHT22;13951;49.516;6.094;2023-02-28T05:53:51;-1.10;99.90
26212;DHT22;13951;49.516;6.094;2023-02-28T05:56:23;-1.10;99.90
26212;DHT22;13951;49.516;6.094;2023-02-28T05:58:56;-1.20;99.90
26212;DHT22;13951;49.516;6.094;2023-02-28T06:01:37;-1.10;99.90
26212;DHT22;13951;49.516;6.094;2023-02-28T06:04:11;-1.20;99.90
26212;DHT22;13951;49.516;6.094;2023-02-28T06:07:02;-1.20;99.90
26212;DHT22;13951;49.516;6.094;2023-02-28T06:09:36;-1.20;99.90
26212;DHT22;13951;49.516;6.094;2023-02-28T06:12:09;-1.20;99.90
26212;DHT22;13951;49.516;6.094;2023-02-28T06:14:42;-1.20;99.90
26212;DHT22;13951;49.516;6.094;2023-02-28T06:17:15;-1.20;99.90
26212;DHT22;13951;49.516;6.094;2023-02-28T06:19:48;-1.30;99.90
26212;DHT22;13951;49.516;6.094;2023-02-28T06:22:21;-1.30;99.90
26212;DHT22;13951;49.516;6.094;2023-02-28T06:24:53;-1.30;99.90
26212;DHT22;13951;49.516;6.094;2023-02-28T06:27:27;-1.30;99.90
26212;DHT22;13951;49.516;6.094;2023-02-28T06:30:00;-1.30;99.90
26212;DHT22;13951;49.516;6.094;2023-02-28T06:32:32;-1.30;99.90
26212;DHT22;13951;49.516;6.094;2023-02-28T06:35:05;-1.20;99.90
26212;DHT22;13951;49.516;6.094;2023-02-28T06:37:38;-1.20;99.90
26212;DHT22;13951;49.516;6.094;2023-02-28T06:40:14;-1.20;99.90
26212;DHT22;13951;49.516;6.094;2023-02-28T06:42:46;-1.20;99.90
26212;DHT22;13951;49.516;6.094;2023-02-28T06:45:19;-1.20;99.90
26212;DHT22;13951;49.516;6.094;2023-02-28T06:47:52;-1.20;99.90
26212;DHT22;13951;49.516;6.094;2023-02-28T06:50:25;-1.20;99.90
26212;DHT22;13951;49.516;6.094;2023-02-28T06:52:58;-1.20;99.90
26212;DHT22;13951;49.516;6.094;2023-02-28T06:55:31;-1.20;99.90
26212;DHT22;13951;49.516;6.094;2023-02-28T06:58:03;-1.20;99.90
26212;DHT22;13951;49.516;6.094;2023-02-28T07:00:49;-1.20;99.90
26212;DHT22;13951;49.516;6.094;2023-02-28T07:03:22;-1.20;99.90
26212;DHT22;13951;49.516;6.094;2023-02-28T07:05:55;-1.20;99.90
26212;DHT22;13951;49.516;6.094;2023-02-28T07:08:28;-1.20;99.90
26212;DHT22;13951;49.516;6.094;2023-02-28T07:11:02;-1.20;99.90
26212;DHT22;13951;49.516;6.094;2023-02-28T07:13:35;-1.10;99.90
26212;DHT22;13951;49.516;6.094;2023-02-28T07:16:10;-1.10;99.90
26212;DHT22;13951;49.516;6.094;2023-02-28T07:18:43;-1.10;99.90
26212;DHT22;13951;49.516;6.094;2023-02-28T07:21:16;-1.00;99.90
26212;DHT22;13951;49.516;6.094;2023-02-28T07:23:49;-1.00;99.90
26212;DHT22;13951;49.516;6.094;2023-02-28T07:26:22;-1.00;99.90
26212;DHT22;13951;49.516;6.094;2023-02-28T07:28:55;-0.90;99.90
26212;DHT22;13951;49.516;6.094;2023-02-28T07:31:28;-0.90;99.90
26212;DHT22;13951;49.516;6.094;2023-02-28T07:34:01;-0.90;99.90
26212;DHT22;13951;49.516;6.094;2023-02-28T07:36:35;-0.90;99.90
26212;DHT22;13951;49.516;6.094;2023-02-28T07:39:08;-0.80;99.90
26212;DHT22;13951;49.516;6.094;2023-02-28T07:41:41;-0.70;99.90
26212;DHT22;13951;49.516;6.094;2023-02-28T07:44:16;-0.70;99.90
26212;DHT22;13951;49.516;6.094;2023-02-28T07:46:49;-0.70;99.90
26212;DHT22;13951;49.516;6.094;2023-02-28T07:49:21;-0.70;99.90
26212;DHT22;13951;49.516;6.094;2023-02-28T07:51:54;-0.60;99.90
26212;DHT22;13951;49.516;6.094;2023-02-28T07:54:27;-0.60;99.90
26212;DHT22;13951;49.516;6.094;2023-02-28T07:56:59;-0.50;99.90
26212;DHT22;13951;49.516;6.094;2023-02-28T07:59:32;-0.40;99.90
26212;DHT22;13951;49.516;6.094;2023-02-28T08:02:05;-0.40;99.90
26212;DHT22;13951;49.516;6.094;2023-02-28T08:04:38;-0.40;99.90
26212;DHT22;13951;49.516;6.094;2023-02-28T08:07:13;-0.30;99.90
26212;DHT22;13951;49.516;6.094;2023-02-28T08:09:45;-0.30;99.90
26212;DHT22;13951;49.516;6.094;2023-02-28T08:12:18;-0.20;99.90
26212;DHT22;13951;49.516;6.094;2023-02-28T08:14:51;-0.10;99.90
26212;DHT22;13951;49.516;6.094;2023-02-28T08:17:24;-0.10;99.90
26212;DHT22;13951;49.516;6.094;2023-02-28T08:19:56;-0.10;99.90
26212;DHT22;13951;49.516;6.094;2023-02-28T08:22:29;0.00;99.90
26212;DHT22;13951;49.516;6.094;2023-02-28T08:25:02;0.00;99.90
26212;DHT22;13951;49.516;6.094;2023-02-28T08:27:36;0.10;99.90
26212;DHT22;13951;49.516;6.094;2023-02-28T08:30:13;0.10;99.90
26212;DHT22;13951;49.516;6.094;2023-02-28T08:32:46;0.20;99.90
26212;DHT22;13951;49.516;6.094;2023-02-28T08:35:19;0.30;99.90
26212;DHT22;13951;49.516;6.094;2023-02-28T08:37:52;0.30;99.90
26212;DHT22;13951;49.516;6.094;2023-02-28T08:40:25;0.30;99.90
26212;DHT22;13951;49.516;6.094;2023-02-28T08:42:58;0.30;99.90
26212;DHT22;13951;49.516;6.094;2023-02-28T08:45:32;0.40;99.90
26212;DHT22;13951;49.516;6.094;2023-02-28T08:48:04;0.50;99.90
26212;DHT22;13951;49.516;6.094;2023-02-28T08:50:37;0.60;99.90
26212;DHT22;13951;49.516;6.094;2023-02-28T08:53:10;0.60;99.90
26212;DHT22;13951;49.516;6.094;2023-02-28T08:55:42;0.80;99.90
26212;DHT22;13951;49.516;6.094;2023-02-28T08:58:15;0.90;99.90
26212;DHT22;13951;49.516;6.094;2023-02-28T09:00:48;1.00;99.90
26212;DHT22;13951;49.516;6.094;2023-02-28T09:03:21;1.00;99.90
26212;DHT22;13951;49.516;6.094;2023-02-28T09:05:59;1.10;99.90
26212;DHT22;13951;49.516;6.094;2023-02-28T09:08:32;1.10;99.90
26212;DHT22;13951;49.516;6.094;2023-02-28T09:11:06;1.10;99.90
26212;DHT22;13951;49.516;6.094;2023-02-28T09:13:39;1.20;99.90
26212;DHT22;13951;49.516;6.094;2023-02-28T09:16:14;1.20;99.90
26212;DHT22;13951;49.516;6.094;2023-02-28T09:18:47;1.20;99.90
26212;DHT22;13951;49.516;6.094;2023-02-28T09:21:20;1.20;99.90
26212;DHT22;13951;49.516;6.094;2023-02-28T09:23:53;1.30;99.90
26212;DHT22;13951;49.516;6.094;2023-02-28T09:26:27;1.40;99.90
26212;DHT22;13951;49.516;6.094;2023-02-28T09:29:14;1.50;99.90
26212;DHT22;13951;49.516;6.094;2023-02-28T09:31:49;1.60;99.90
26212;DHT22;13951;49.516;6.094;2023-02-28T09:34:22;1.70;99.90
26212;DHT22;13951;49.516;6.094;2023-02-28T09:36:55;1.80;99.90
26212;DHT22;13951;49.516;6.094;2023-02-28T09:39:28;1.90;99.90
26212;DHT22;13951;49.516;6.094;2023-02-28T09:42:02;2.00;99.90
26212;DHT22;13951;49.516;6.094;2023-02-28T09:44:43;2.10;99.90
26212;DHT22;13951;49.516;6.094;2023-02-28T09:47:40;2.10;99.90
26212;DHT22;13951;49.516;6.094;2023-02-28T09:52:56;2.00;99.90
26212;DHT22;13951;49.516;6.094;2023-02-28T09:55:43;1.90;99.90
26212;DHT22;13951;49.516;6.094;2023-02-28T09:58:45;1.90;99.90
26212;DHT22;13951;49.516;6.094;2023-02-28T10:05:17;2.00;99.90
26212;DHT22;13951;49.516;6.094;2023-02-28T10:07:46;2.20;99.90
26212;DHT22;13951;49.516;6.094;2023-02-28T10:10:26;2.20;99.90
26212;DHT22;13951;49.516;6.094;2023-02-28T10:13:04;2.40;99.90
26212;DHT22;13951;49.516;6.094;2023-02-28T10:15:38;2.40;99.90
26212;DHT22;13951;49.516;6.094;2023-02-28T10:18:15;2.40;99.90
26212;DHT22;13951;49.516;6.094;2023-02-28T10:20:49;2.30;99.90
26212;DHT22;13951;49.516;6.094;2023-02-28T10:23:34;2.30;99.90
26212;DHT22;13951;49.516;6.094;2023-02-28T10:26:17;2.30;99.90
26212;DHT22;13951;49.516;6.094;2023-02-28T10:28:51;2.30;99.90
26212;DHT22;13951;49.516;6.094;2023-02-28T10:31:25;2.40;99.90
26212;DHT22;13951;49.516;6.094;2023-02-28T10:33:58;2.50;99.90
26212;DHT22;13951;49.516;6.094;2023-02-28T10:36:31;2.60;99.90
26212;DHT22;13951;49.516;6.094;2023-02-28T10:39:39;2.60;99.90
26212;DHT22;13951;49.516;6.094;2023-02-28T10:42:30;2.80;99.90
26212;DHT22;13951;49.516;6.094;2023-02-28T10:45:16;2.90;99.90
26212;DHT22;13951;49.516;6.094;2023-02-28T10:47:53;3.00;99.90
26212;DHT22;13951;49.516;6.094;2023-02-28T11:01:41;2.70;99.90
26212;DHT22;13951;49.516;6.094;2023-02-28T11:07:19;2.70;99.90
26212;DHT22;13951;49.516;6.094;2023-02-28T11:09:57;3.10;99.90
26212;DHT22;13951;49.516;6.094;2023-02-28T11:12:37;3.40;99.90
26212;DHT22;13951;49.516;6.094;2023-02-28T11:15:45;3.40;99.90
26212;DHT22;13951;49.516;6.094;2023-02-28T11:18:30;3.40;99.90
26212;DHT22;13951;49.516;6.094;2023-02-28T11:21:06;3.50;99.90
26212;DHT22;13951;49.516;6.094;2023-02-28T11:23:40;3.60;99.90
26212;DHT22;13951;49.516;6.094;2023-02-28T11:26:14;3.70;99.90
26212;DHT22;13951;49.516;6.094;2023-02-28T11:28:47;3.70;99.90
26212;DHT22;13951;49.516;6.094;2023-02-28T11:31:20;3.60;99.90
26212;DHT22;13951;49.516;6.094;2023-02-28T11:33:55;3.40;99.90
26212;DHT22;13951;49.516;6.094;2023-02-28T11:36:31;3.30;99.90
26212;DHT22;13951;49.516;6.094;2023-02-28T11:39:12;3.10;99.90
26212;DHT22;13951;49.516;6.094;2023-02-28T11:44:54;3.00;99.90
26212;DHT22;13951;49.516;6.094;2023-02-28T11:47:47;3.40;99.90
26212;DHT22;13951;49.516;6.094;2023-02-28T11:50:22;3.90;99.90
26212;DHT22;13951;49.516;6.094;2023-02-28T11:53:16;4.00;99.90
26212;DHT22;13951;49.516;6.094;2023-02-28T12:02:25;4.90;99.90
26212;DHT22;13951;49.516;6.094;2023-02-28T12:10:41;5.70;99.00
26212;DHT22;13951;49.516;6.094;2023-02-28T12:13:23;5.80;98.50
26212;DHT22;13951;49.516;6.094;2023-02-28T12:16:27;5.40;98.80
26212;DHT22;13951;49.516;6.094;2023-02-28T12:22:05;5.20;99.10
26212;DHT22;13951;49.516;6.094;2023-02-28T12:27:21;4.80;99.00
26212;DHT22;13951;49.516;6.094;2023-02-28T12:30:14;4.70;98.90
26212;DHT22;13951;49.516;6.094;2023-02-28T12:35:37;4.60;99.50
26212;DHT22;13951;49.516;6.094;2023-02-28T12:38:39;4.80;99.50
26212;DHT22;13951;49.516;6.094;2023-02-28T12:41:19;4.60;98.40
26212;DHT22;13951;49.516;6.094;2023-02-28T12:44:02;4.40;99.00
26212;DHT22;13951;49.516;6.094;2023-02-28T12:46:44;4.20;99.90
26212;DHT22;13951;49.516;6.094;2023-02-28T12:52:13;4.00;99.90
26212;DHT22;13951;49.516;6.094;2023-02-28T12:55:01;4.00;99.40
26212;DHT22;13951;49.516;6.094;2023-02-28T12:57:43;4.00;99.90
26212;DHT22;13951;49.516;6.094;2023-02-28T13:00:23;3.90;98.50
26212;DHT22;13951;49.516;6.094;2023-02-28T13:11:25;4.10;97.40
26212;DHT22;13951;49.516;6.094;2023-02-28T13:14:16;4.10;97.30
26212;DHT22;13951;49.516;6.094;2023-02-28T13:16:54;4.10;97.50
26212;DHT22;13951;49.516;6.094;2023-02-28T13:19:33;4.10;98.20
26212;DHT22;13951;49.516;6.094;2023-02-28T13:22:20;4.50;97.30
26212;DHT22;13951;49.516;6.094;2023-02-28T13:24:55;4.50;96.50
26212;DHT22;13951;49.516;6.094;2023-02-28T13:27:39;4.40;96.70
26212;DHT22;13951;49.516;6.094;2023-02-28T13:33:31;4.40;96.30
26212;DHT22;13951;49.516;6.094;2023-02-28T13:47:40;4.30;97.20
26212;DHT22;13951;49.516;6.094;2023-02-28T13:50:34;4.20;96.90
26212;DHT22;13951;49.516;6.094;2023-02-28T14:02:23;4.10;97.90
26212;DHT22;13951;49.516;6.094;2023-02-28T14:04:45;4.00;97.60
26212;DHT22;13951;49.516;6.094;2023-02-28T14:07:23;4.00;98.10
26212;DHT22;13951;49.516;6.094;2023-02-28T14:10:08;4.00;97.70
26212;DHT22;13951;49.516;6.094;2023-02-28T14:21:01;4.00;98.40
26212;DHT22;13951;49.516;6.094;2023-02-28T14:24:10;4.10;97.40
26212;DHT22;13951;49.516;6.094;2023-02-28T14:27:12;4.10;97.20
26212;DHT22;13951;49.516;6.094;2023-02-28T14:39:20;4.10;97.10
26212;DHT22;13951;49.516;6.094;2023-02-28T14:41:38;4.10;97.10
26212;DHT22;13951;49.516;6.094;2023-02-28T14:44:17;4.10;96.80
26212;DHT22;13951;49.516;6.094;2023-02-28T14:46:57;4.10;96.80
26212;DHT22;13951;49.516;6.094;2023-02-28T14:49:44;4.10;97.10
26212;DHT22;13951;49.516;6.094;2023-02-28T14:52:22;4.10;97.20
26212;DHT22;13951;49.516;6.094;2023-02-28T14:55:00;4.20;97.20
26212;DHT22;13951;49.516;6.094;2023-02-28T14:57:39;4.20;97.00
26212;DHT22;13951;49.516;6.094;2023-02-28T15:00:16;4.20;96.70
26212;DHT22;13951;49.516;6.094;2023-02-28T15:02:50;4.20;97.40
26212;DHT22;13951;49.516;6.094;2023-02-28T15:08:05;4.10;97.20
26212;DHT22;13951;49.516;6.094;2023-02-28T15:11:03;4.10;97.20
26212;DHT22;13951;49.516;6.094;2023-02-28T15:13:38;4.00;97.10
26212;DHT22;13951;49.516;6.094;2023-02-28T15:16:15;4.00;97.30
26212;DHT22;13951;49.516;6.094;2023-02-28T15:21:37;4.00;97.40
26212;DHT22;13951;49.516;6.094;2023-02-28T15:24:17;4.00;97.50
26212;DHT22;13951;49.516;6.094;2023-02-28T15:27:04;4.00;97.50
26212;DHT22;13951;49.516;6.094;2023-02-28T15:29:50;3.90;97.80
26212;DHT22;13951;49.516;6.094;2023-02-28T15:32:31;3.90;98.00
26212;DHT22;13951;49.516;6.094;2023-02-28T15:38:02;3.90;98.50
26212;DHT22;13951;49.516;6.094;2023-02-28T15:40:42;3.90;98.30
26212;DHT22;13951;49.516;6.094;2023-02-28T15:43:17;3.90;97.90
26212;DHT22;13951;49.516;6.094;2023-02-28T15:45:53;4.00;98.00
26212;DHT22;13951;49.516;6.094;2023-02-28T15:48:47;4.00;97.80
26212;DHT22;13951;49.516;6.094;2023-02-28T15:51:36;4.00;97.40
26212;DHT22;13951;49.516;6.094;2023-02-28T15:54:22;4.00;97.50
26212;DHT22;13951;49.516;6.094;2023-02-28T15:57:00;4.00;97.80
26212;DHT22;13951;49.516;6.094;2023-02-28T15:59:33;4.00;98.10
26212;DHT22;13951;49.516;6.094;2023-02-28T16:02:17;4.00;98.20
26212;DHT22;13951;49.516;6.094;2023-02-28T16:04:57;4.10;97.90
26212;DHT22;13951;49.516;6.094;2023-02-28T16:07:31;4.00;98.00
26212;DHT22;13951;49.516;6.094;2023-02-28T16:10:05;4.00;97.80
26212;DHT22;13951;49.516;6.094;2023-02-28T16:12:40;4.00;97.60
26212;DHT22;13951;49.516;6.094;2023-02-28T16:15:24;4.00;97.50
26212;DHT22;13951;49.516;6.094;2023-02-28T16:17:58;4.00;97.80
26212;DHT22;13951;49.516;6.094;2023-02-28T16:20:31;4.00;98.10
26212;DHT22;13951;49.516;6.094;2023-02-28T16:23:04;4.00;97.90
26212;DHT22;13951;49.516;6.094;2023-02-28T16:25:40;3.90;98.10
26212;DHT22;13951;49.516;6.094;2023-02-28T16:28:28;3.90;98.50
26212;DHT22;13951;49.516;6.094;2023-02-28T16:31:06;3.90;98.40
26212;DHT22;13951;49.516;6.094;2023-02-28T16:33:39;3.90;98.60
26212;DHT22;13951;49.516;6.094;2023-02-28T16:36:22;3.90;98.50
26212;DHT22;13951;49.516;6.094;2023-02-28T16:38:57;3.80;98.50
26212;DHT22;13951;49.516;6.094;2023-02-28T16:41:30;3.80;98.80
26212;DHT22;13951;49.516;6.094;2023-02-28T16:44:10;3.80;98.70
26212;DHT22;13951;49.516;6.094;2023-02-28T16:46:44;3.70;98.60
26212;DHT22;13951;49.516;6.094;2023-02-28T16:49:17;3.70;98.50
26212;DHT22;13951;49.516;6.094;2023-02-28T16:51:49;3.70;98.60
26212;DHT22;13951;49.516;6.094;2023-02-28T16:54:22;3.70;98.80
26212;DHT22;13951;49.516;6.094;2023-02-28T16:56:55;3.60;99.10
26212;DHT22;13951;49.516;6.094;2023-02-28T16:59:28;3.60;99.30
26212;DHT22;13951;49.516;6.094;2023-02-28T17:02:01;3.60;99.50
26212;DHT22;13951;49.516;6.094;2023-02-28T17:04:34;3.50;99.40
26212;DHT22;13951;49.516;6.094;2023-02-28T17:07:16;3.50;99.40
26212;DHT22;13951;49.516;6.094;2023-02-28T17:09:49;3.40;99.50
26212;DHT22;13951;49.516;6.094;2023-02-28T17:12:21;3.40;99.60
26212;DHT22;13951;49.516;6.094;2023-02-28T17:14:54;3.40;99.70
26212;DHT22;13951;49.516;6.094;2023-02-28T17:17:28;3.30;99.90
26212;DHT22;13951;49.516;6.094;2023-02-28T17:20:02;3.30;99.90
26212;DHT22;13951;49.516;6.094;2023-02-28T17:22:35;3.20;99.90
26212;DHT22;13951;49.516;6.094;2023-02-28T17:25:09;3.20;99.90
26212;DHT22;13951;49.516;6.094;2023-02-28T17:27:42;3.10;99.90
26212;DHT22;13951;49.516;6.094;2023-02-28T17:30:18;3.10;99.90
26212;DHT22;13951;49.516;6.094;2023-02-28T17:32:51;3.10;99.90
26212;DHT22;13951;49.516;6.094;2023-02-28T17:35:24;3.10;99.90
26212;DHT22;13951;49.516;6.094;2023-02-28T17:37:59;3.00;99.90
26212;DHT22;13951;49.516;6.094;2023-02-28T17:40:31;3.00;99.90
26212;DHT22;13951;49.516;6.094;2023-02-28T17:43:06;2.90;99.90
26212;DHT22;13951;49.516;6.094;2023-02-28T17:45:39;2.90;99.90
26212;DHT22;13951;49.516;6.094;2023-02-28T17:48:11;2.90;99.90
26212;DHT22;13951;49.516;6.094;2023-02-28T17:50:45;2.80;99.90
26212;DHT22;13951;49.516;6.094;2023-02-28T17:53:18;2.80;99.90
26212;DHT22;13951;49.516;6.094;2023-02-28T17:55:50;2.80;99.90
26212;DHT22;13951;49.516;6.094;2023-02-28T17:58:23;2.70;99.90
26212;DHT22;13951;49.516;6.094;2023-02-28T18:00:56;2.70;99.90
26212;DHT22;13951;49.516;6.094;2023-02-28T18:03:29;2.70;99.90
26212;DHT22;13951;49.516;6.094;2023-02-28T18:06:03;2.60;99.90
26212;DHT22;13951;49.516;6.094;2023-02-28T18:08:36;2.50;99.90
26212;DHT22;13951;49.516;6.094;2023-02-28T18:11:09;2.50;99.90
26212;DHT22;13951;49.516;6.094;2023-02-28T18:13:51;2.50;99.90
26212;DHT22;13951;49.516;6.094;2023-02-28T18:16:24;2.40;99.90
26212;DHT22;13951;49.516;6.094;2023-02-28T18:18:58;2.40;99.90
26212;DHT22;13951;49.516;6.094;2023-02-28T18:21:31;2.40;99.90
26212;DHT22;13951;49.516;6.094;2023-02-28T18:24:04;2.30;99.90
26212;DHT22;13951;49.516;6.094;2023-02-28T18:26:38;2.30;99.90
26212;DHT22;13951;49.516;6.094;2023-02-28T18:29:19;2.30;99.90
26212;DHT22;13951;49.516;6.094;2023-02-28T18:31:54;2.20;99.90
26212;DHT22;13951;49.516;6.094;2023-02-28T18:34:27;2.10;99.90
26212;DHT22;13951;49.516;6.094;2023-02-28T18:37:02;2.10;99.90
26212;DHT22;13951;49.516;6.094;2023-02-28T18:39:35;2.10;99.90
26212;DHT22;13951;49.516;6.094;2023-02-28T18:42:07;2.00;99.90
26212;DHT22;13951;49.516;6.094;2023-02-28T18:44:40;2.10;99.90
26212;DHT22;13951;49.516;6.094;2023-02-28T18:47:13;2.00;99.90
26212;DHT22;13951;49.516;6.094;2023-02-28T18:49:46;2.00;99.90
26212;DHT22;13951;49.516;6.094;2023-02-28T18:52:18;2.00;99.90
26212;DHT22;13951;49.516;6.094;2023-02-28T18:54:51;2.00;99.90
26212;DHT22;13951;49.516;6.094;2023-02-28T18:57:24;1.90;99.90
26212;DHT22;13951;49.516;6.094;2023-02-28T18:59:57;1.90;99.90
26212;DHT22;13951;49.516;6.094;2023-02-28T19:02:29;1.80;99.90
26212;DHT22;13951;49.516;6.094;2023-02-28T19:05:02;1.80;99.90